Terminal Aerodrome Forecast
Issued by NWS Sioux Falls, SD

Current Version | Previous Version | Text Only | Print | Product List | Glossary On
Versions: 1 2 3 4 5 6 7 8 9 10 11 12 13 14 15 16 17 18 19 20 21
074
FTUS43 KFSD 261720
TAFFSD
TAF
KFSD 261720Z 2618/2718 04006KT P6SM OVC010
     FM270600 VRB03KT P6SM OVC020
     FM270700 VRB03KT P6SM OVC015
     FM271400 02005KT P6SM BKN020=

USA.gov is the U.S. government's official web portal to all federal, state and local government web resources and services.